Time;durP1;ratioP1;P1;durP2;ratioP2;P2;SDS_P1;SDS_P2;PMS_P1;PMS_P2;Temp;Humidity;BMP_temperature;BMP_pressure;BME280_temperature;BME280_humidity;BME280_pressure;Samples;Min_cycle;Max_cycle;Signal;HPM_P1;HPM_P2
2020/12/22 00:01:13;;;;;;;5.18;4.78;;;13.10;96.50;;;;;;5015617;28;20048;-69
2020/12/22 00:03:39;;;;;;;4.75;4.35;;;13.10;96.50;;;;;;5034057;28;20030;-69
2020/12/22 00:06:05;;;;;;;4.65;4.32;;;13.10;96.60;;;;;;5033980;28;20083;-69
2020/12/22 00:08:30;;;;;;;4.35;3.95;;;13.20;96.60;;;;;;5035925;28;20022;-68
2020/12/22 00:10:56;;;;;;;4.95;4.53;;;13.20;96.60;;;;;;5053626;28;20029;-70
2020/12/22 00:13:21;;;;;;;4.70;4.30;;;13.20;96.60;;;;;;5035988;28;20025;-70
2020/12/22 00:15:47;;;;;;;4.95;4.45;;;13.30;96.60;;;;;;5035486;28;20083;-70
2020/12/22 00:18:12;;;;;;;4.88;4.47;;;13.30;96.60;;;;;;5025702;28;20124;-70
2020/12/22 00:20:38;;;;;;;5.15;4.65;;;13.30;96.60;;;;;;5032020;28;20033;-71
2020/12/22 00:23:04;;;;;;;4.75;4.32;;;13.30;96.60;;;;;;5030717;28;20025;-71
2020/12/22 00:25:30;;;;;;;4.63;4.22;;;13.40;96.60;;;;;;5032400;28;20017;-70
2020/12/22 00:27:55;;;;;;;4.50;4.20;;;13.40;96.60;;;;;;5032319;28;20080;-70
2020/12/22 00:30:21;;;;;;;4.20;3.90;;;13.40;96.60;;;;;;5031434;28;20052;-70
2020/12/22 00:32:46;;;;;;;4.05;3.75;;;13.40;96.70;;;;;;5031922;28;20070;-70
2020/12/22 00:35:12;;;;;;;3.90;3.60;;;13.40;96.70;;;;;;5032473;28;20025;-70
2020/12/22 00:37:37;;;;;;;4.18;3.88;;;13.50;96.80;;;;;;5032738;28;20083;-70
2020/12/22 00:40:04;;;;;;;4.20;3.80;;;13.50;96.80;;;;;;5033381;28;20021;-70
2020/12/22 00:42:34;;;;;;;4.15;3.78;;;13.50;96.70;;;;;;5033419;28;20026;-70
2020/12/22 00:44:59;;;;;;;4.20;3.78;;;13.50;96.80;;;;;;5032352;28;20128;-70
2020/12/22 00:47:25;;;;;;;5.50;3.97;;;13.60;96.80;;;;;;5033444;28;20060;-71
2020/12/22 00:49:51;;;;;;;4.03;3.72;;;13.60;96.80;;;;;;5033376;28;20100;-70
2020/12/22 00:52:17;;;;;;;4.13;3.80;;;13.60;96.80;;;;;;5032632;28;20033;-70
2020/12/22 00:54:42;;;;;;;3.85;3.55;;;13.60;96.80;;;;;;5015768;28;20413;-70
2020/12/22 00:57:08;;;;;;;3.90;3.60;;;13.70;96.80;;;;;;5032841;28;20030;-70
2020/12/22 00:59:37;;;;;;;3.45;3.25;;;13.70;96.80;;;;;;5032473;28;20076;-70
2020/12/22 01:02:07;;;;;;;3.60;3.35;;;13.70;96.80;;;;;;5032990;28;20463;-70
2020/12/22 01:04:33;;;;;;;3.85;3.55;;;13.70;96.80;;;;;;5032580;28;20035;-69
2020/12/22 01:06:59;;;;;;;3.53;3.22;;;13.70;96.80;;;;;;5032921;28;20021;-70
2020/12/22 01:09:25;;;;;;;3.67;3.20;;;13.70;96.80;;;;;;5033143;28;20041;-70
2020/12/22 01:11:51;;;;;;;3.35;3.15;;;13.80;96.80;;;;;;5014659;28;20104;-70
2020/12/22 01:14:17;;;;;;;4.28;3.10;;;13.80;96.80;;;;;;5015344;28;20043;-70
2020/12/22 01:16:42;;;;;;;3.00;2.80;;;13.80;96.80;;;;;;5032882;28;20029;-69
2020/12/22 01:19:08;;;;;;;2.92;2.72;;;13.80;96.80;;;;;;5031949;28;20071;-70
2020/12/22 01:21:34;;;;;;;2.95;2.75;;;13.80;96.80;;;;;;5015262;28;20029;-69
2020/12/22 01:24:00;;;;;;;2.38;2.28;;;13.90;96.80;;;;;;5032414;28;20496;-71
2020/12/22 01:26:26;;;;;;;3.50;2.50;;;13.90;96.80;;;;;;5014552;28;20026;-72
2020/12/22 01:28:53;;;;;;;2.65;2.40;;;13.90;96.80;;;;;;5032685;28;20408;-71
2020/12/22 01:31:23;;;;;;;2.70;2.60;;;13.90;96.80;;;;;;5015071;28;20105;-70
2020/12/22 01:33:49;;;;;;;2.30;2.20;;;13.90;96.70;;;;;;5032073;28;20078;-70
2020/12/22 01:36:14;;;;;;;2.58;2.38;;;13.90;97.00;;;;;;5032539;28;20108;-70
2020/12/22 01:38:40;;;;;;;2.80;2.60;;;13.90;96.80;;;;;;5032691;28;20033;-70
2020/12/22 01:41:06;;;;;;;2.55;2.35;;;13.90;96.80;;;;;;5031694;28;20062;-70
2020/12/22 01:43:31;;;;;;;2.20;2.10;;;13.90;96.80;;;;;;5036013;28;20482;-69
2020/12/22 01:45:57;;;;;;;1.90;1.80;;;13.90;96.80;;;;;;5036568;28;20370;-70
2020/12/22 01:48:22;;;;;;;2.20;2.00;;;14.00;96.90;;;;;;5035836;28;20482;-70
2020/12/22 01:50:48;;;;;;;2.22;2.13;;;13.90;96.90;;;;;;5036523;28;20025;-70
2020/12/22 01:53:14;;;;;;;1.90;1.80;;;13.90;96.90;;;;;;5036431;28;20030;-70
2020/12/22 01:55:41;;;;;;;1.95;1.77;;;13.90;96.90;;;;;;5035914;28;20088;-70
2020/12/22 01:58:07;;;;;;;1.70;1.60;;;13.90;96.90;;;;;;5036337;28;20420;-70
2020/12/22 02:00:32;;;;;;;2.03;1.50;;;14.00;96.90;;;;;;5036762;28;20026;-70
2020/12/22 02:02:58;;;;;;;1.10;1.10;;;13.90;97.00;;;;;;5035786;28;20386;-70
2020/12/22 02:05:23;;;;;;;1.20;1.20;;;13.90;97.00;;;;;;5036656;28;20029;-69
2020/12/22 02:07:49;;;;;;;1.42;1.33;;;13.90;97.00;;;;;;5035807;28;20072;-70
2020/12/22 02:10:14;;;;;;;1.00;1.00;;;13.90;97.00;;;;;;5036090;28;20032;-70
2020/12/22 02:12:40;;;;;;;1.08;1.08;;;13.90;97.00;;;;;;5036264;28;20052;-70
2020/12/22 02:15:06;;;;;;;1.30;1.30;;;13.90;97.00;;;;;;5035720;28;20026;-71
2020/12/22 02:17:32;;;;;;;1.20;1.00;;;13.90;97.10;;;;;;5036166;28;20083;-68
2020/12/22 02:19:57;;;;;;;1.30;1.20;;;14.00;97.10;;;;;;5035884;28;20018;-71
2020/12/22 02:22:23;;;;;;;1.10;1.10;;;13.90;97.30;;;;;;5035434;28;20030;-70
2020/12/22 02:24:48;;;;;;;0.85;0.85;;;14.00;97.10;;;;;;5035965;28;20018;-69
2020/12/22 02:27:14;;;;;;;0.93;0.93;;;14.00;97.10;;;;;;5018055;28;20470;-70
2020/12/22 02:29:39;;;;;;;0.90;0.90;;;14.00;97.10;;;;;;5035269;28;20030;-69
2020/12/22 02:32:05;;;;;;;2.55;1.10;;;14.00;97.10;;;;;;5035675;28;20028;-69
2020/12/22 02:34:30;;;;;;;3.10;1.10;;;13.90;97.10;;;;;;5036324;28;20049;-69
2020/12/22 02:36:56;;;;;;;1.40;1.30;;;14.00;97.10;;;;;;5034831;28;20027;-69
2020/12/22 02:39:21;;;;;;;1.00;1.00;;;14.00;97.10;;;;;;5035885;28;20033;-69
2020/12/22 02:41:47;;;;;;;2.15;1.25;;;14.00;97.10;;;;;;5017894;28;20025;-69
2020/12/22 02:44:12;;;;;;;1.15;1.15;;;14.00;97.20;;;;;;5034636;28;20517;-68
2020/12/22 02:46:38;;;;;;;1.95;1.20;;;13.90;97.10;;;;;;5035780;28;20030;-70
2020/12/22 02:49:04;;;;;;;1.40;1.30;;;13.90;97.10;;;;;;5035431;28;20026;-73
2020/12/22 02:51:33;;;;;;;1.20;1.20;;;13.90;97.20;;;;;;5034968;28;20025;-70
2020/12/22 02:53:58;;;;;;;1.33;1.30;;;13.90;97.20;;;;;;5034389;28;20033;-69
2020/12/22 02:56:24;;;;;;;1.17;1.17;;;13.90;97.20;;;;;;5035565;28;20022;-69
2020/12/22 02:58:52;;;;;;;1.27;1.27;;;14.00;97.20;;;;;;5034747;28;20383;-70
2020/12/22 03:01:18;;;;;;;1.33;1.30;;;13.90;97.20;;;;;;5035625;28;20040;-70
2020/12/22 03:03:45;;;;;;;1.58;1.48;;;14.00;97.20;;;;;;5035403;28;20041;-70
2020/12/22 03:06:10;;;;;;;1.50;1.40;;;13.90;97.20;;;;;;5034703;28;20044;-69
2020/12/22 03:08:36;;;;;;;1.58;1.50;;;13.90;97.20;;;;;;5035301;28;20525;-69
2020/12/22 03:11:03;;;;;;;1.75;1.65;;;13.90;97.30;;;;;;5034232;28;20040;-70
2020/12/22 03:13:28;;;;;;;1.60;1.50;;;13.90;97.30;;;;;;5035136;28;20075;-69
2020/12/22 03:15:54;;;;;;;1.98;1.58;;;13.90;97.20;;;;;;5034985;28;20433;-70
2020/12/22 03:18:19;;;;;;;1.60;1.50;;;13.90;97.30;;;;;;5034500;28;20052;-69
2020/12/22 03:20:46;;;;;;;1.40;1.40;;;13.90;97.30;;;;;;5035145;28;20513;-73
2020/12/22 03:23:12;;;;;;;1.50;1.40;;;13.90;97.30;;;;;;5034693;28;20033;-68
2020/12/22 03:25:37;;;;;;;1.60;1.50;;;13.90;97.30;;;;;;5034423;28;20024;-69
2020/12/22 03:28:03;;;;;;;2.00;1.60;;;13.90;97.30;;;;;;5034632;28;20022;-69
2020/12/22 03:30:28;;;;;;;4.15;1.40;;;13.90;97.30;;;;;;5035018;28;20025;-69
2020/12/22 03:32:54;;;;;;;1.58;1.48;;;13.90;97.20;;;;;;5033916;28;20022;-68
2020/12/22 03:35:20;;;;;;;3.22;1.40;;;13.90;97.20;;;;;;5034922;28;20409;-68
2020/12/22 03:37:45;;;;;;;10.85;1.90;;;13.90;97.10;;;;;;5034916;28;20068;-68
2020/12/22 03:40:14;;;;;;;0.80;0.80;;;13.90;97.10;;;;;;5033798;28;20488;-69
2020/12/22 03:42:40;;;;;;;0.90;0.90;;;13.90;97.00;;;;;;5016870;28;20116;-69
2020/12/22 03:45:07;;;;;;;2.60;1.67;;;13.80;97.10;;;;;;5034234;28;20129;-69
2020/12/22 03:47:33;;;;;;;1.00;1.00;;;13.80;97.20;;;;;;5016227;28;20080;-69
2020/12/22 03:49:59;;;;;;;2.60;0.90;;;13.70;97.20;;;;;;5016523;28;20459;-69
2020/12/22 03:52:24;;;;;;;1.08;0.93;;;13.60;97.30;;;;;;5034495;28;20065;-69
2020/12/22 03:54:50;;;;;;;2.08;1.05;;;13.70;97.40;;;;;;5016131;28;20022;-69
2020/12/22 03:57:16;;;;;;;0.90;0.90;;;13.60;97.40;;;;;;5034069;28;20022;-70
2020/12/22 03:59:42;;;;;;;1.65;1.20;;;13.60;97.50;;;;;;5034365;28;20052;-70
2020/12/22 04:02:08;;;;;;;1.27;1.17;;;13.60;97.50;;;;;;5015588;28;20454;-69
2020/12/22 04:04:33;;;;;;;1.30;1.20;;;13.60;97.40;;;;;;5034319;28;20104;-70
2020/12/22 04:06:59;;;;;;;1.17;1.08;;;13.60;97.50;;;;;;5033905;28;20029;-70
2020/12/22 04:09:24;;;;;;;1.73;1.25;;;13.60;97.50;;;;;;5033546;28;20033;-70
2020/12/22 04:11:51;;;;;;;1.63;1.33;;;13.60;97.50;;;;;;5034086;28;20048;-70
2020/12/22 04:14:17;;;;;;;1.65;1.20;;;13.50;97.40;;;;;;5033295;28;20025;-70
2020/12/22 04:16:43;;;;;;;1.10;1.10;;;13.60;97.40;;;;;;5034095;28;20209;-70
2020/12/22 04:19:09;;;;;;;3.05;1.20;;;13.60;97.40;;;;;;5033584;28;20485;-68
2020/12/22 04:21:36;;;;;;;2.22;1.13;;;13.60;97.30;;;;;;5033445;28;20026;-68
2020/12/22 04:24:03;;;;;;;1.10;1.00;;;13.70;97.20;;;;;;5033594;28;20466;-68
2020/12/22 04:26:29;;;;;;;0.98;0.90;;;13.60;97.20;;;;;;5033991;28;20022;-68
2020/12/22 04:28:55;;;;;;;1.48;1.00;;;13.60;97.10;;;;;;5032661;28;20028;-68
2020/12/22 04:31:24;;;;;;;0.90;0.80;;;13.60;97.10;;;;;;5033800;28;20104;-68
2020/12/22 04:33:54;;;;;;;3.08;1.05;;;13.60;97.00;;;;;;5015907;28;20402;-68
2020/12/22 04:36:20;;;;;;;1.17;0.82;;;13.60;97.00;;;;;;5033044;28;20018;-68
2020/12/22 04:38:47;;;;;;;2.35;0.75;;;13.50;97.00;;;;;;5033575;28;20040;-68
2020/12/22 04:41:14;;;;;;;0.85;0.82;;;13.40;97.20;;;;;;5033336;28;20057;-70
2020/12/22 04:43:42;;;;;;;2.08;1.10;;;13.40;97.20;;;;;;5014953;28;20045;-69
2020/12/22 04:46:08;;;;;;;1.13;0.85;;;13.30;97.30;;;;;;5015448;28;20055;-69
2020/12/22 04:48:37;;;;;;;2.40;0.90;;;13.30;97.40;;;;;;5033433;28;20022;-70
2020/12/22 04:51:08;;;;;;;2.88;1.20;;;13.30;97.50;;;;;;5032527;28;20447;-70
2020/12/22 04:53:34;;;;;;;2.05;1.25;;;13.40;97.50;;;;;;5033341;28;20026;-70
2020/12/22 04:56:01;;;;;;;1.45;1.30;;;13.30;97.40;;;;;;5033053;28;20025;-71
2020/12/22 04:58:28;;;;;;;2.70;1.55;;;13.40;97.40;;;;;;5032485;28;20038;-70
2020/12/22 05:00:58;;;;;;;1.65;1.55;;;13.30;97.40;;;;;;5033007;28;20053;-70
2020/12/22 05:03:23;;;;;;;2.58;1.30;;;13.40;97.40;;;;;;5033191;28;20540;-70
2020/12/22 05:05:50;;;;;;;1.60;1.50;;;13.40;97.40;;;;;;5032776;28;20025;-70
2020/12/22 05:08:16;;;;;;;1.73;1.35;;;13.40;97.40;;;;;;5032872;28;20029;-69
2020/12/22 05:10:42;;;;;;;1.40;1.30;;;13.40;97.40;;;;;;5032422;28;20064;-69
2020/12/22 05:13:11;;;;;;;1.63;1.08;;;13.40;97.30;;;;;;5014960;28;20444;-69
2020/12/22 05:15:41;;;;;;;1.67;1.10;;;13.40;97.20;;;;;;5015337;28;20049;-69
2020/12/22 05:18:07;;;;;;;1.73;0.80;;;13.40;97.10;;;;;;5031527;28;20029;-69
2020/12/22 05:20:33;;;;;;;1.83;0.90;;;13.40;97.00;;;;;;5033029;28;20369;-70
2020/12/22 05:22:58;;;;;;;1.25;0.80;;;13.40;97.00;;;;;;5032540;28;20112;-69
2020/12/22 05:25:27;;;;;;;0.93;0.73;;;13.50;97.00;;;;;;5032464;28;20155;-70
2020/12/22 05:27:55;;;;;;;1.90;0.68;;;13.50;96.70;;;;;;5032641;28;20037;-69
2020/12/22 05:30:21;;;;;;;4.03;0.93;;;13.50;96.60;;;;;;5032883;28;20022;-69
2020/12/22 05:32:51;;;;;;;2.13;0.90;;;13.50;96.60;;;;;;5032018;28;20071;-69
2020/12/22 05:35:20;;;;;;;2.22;1.00;;;13.50;96.50;;;;;;5032947;28;20021;-69
2020/12/22 05:37:51;;;;;;;3.42;1.10;;;13.50;96.40;;;;;;5032624;28;20075;-69
2020/12/22 05:40:18;;;;;;;1.20;0.98;;;13.60;96.40;;;;;;5032153;28;20068;-69
2020/12/22 05:42:46;;;;;;;1.23;1.00;;;13.60;96.30;;;;;;5032720;28;20033;-69
2020/12/22 05:45:12;;;;;;;2.15;1.20;;;13.60;96.20;;;;;;5032217;28;20059;-71
2020/12/22 05:47:38;;;;;;;3.30;1.60;;;13.60;96.00;;;;;;5031909;28;20407;-70
2020/12/22 05:50:04;;;;;;;3.92;1.50;;;13.60;95.90;;;;;;5032366;28;20014;-69
2020/12/22 05:52:31;;;;;;;3.15;1.50;;;13.60;95.90;;;;;;5032728;28;20402;-69
2020/12/22 05:54:58;;;;;;;3.03;1.77;;;13.60;95.90;;;;;;5031663;28;20100;-68
2020/12/22 05:57:24;;;;;;;2.15;1.20;;;13.70;95.80;;;;;;5032561;28;20033;-70
2020/12/22 05:59:51;;;;;;;3.90;1.30;;;13.70;95.80;;;;;;5032166;28;20108;-68
2020/12/22 06:02:30;;;;;;;3.33;0.98;;;13.70;95.70;;;;;;5014670;28;20025;-68
2020/12/22 06:05:00;;;;;;;3.15;1.10;;;13.70;95.60;;;;;;5014734;28;20449;-69
2020/12/22 06:07:27;;;;;;;3.42;1.55;;;13.70;95.50;;;;;;5031817;28;20018;-68
2020/12/22 06:09:53;;;;;;;6.55;1.30;;;13.70;95.30;;;;;;5032154;28;20032;-69
2020/12/22 06:12:23;;;;;;;3.20;1.42;;;13.70;95.30;;;;;;5032596;28;20022;-70
2020/12/22 06:14:51;;;;;;;2.85;1.25;;;13.70;95.50;;;;;;5014149;28;20076;-69
2020/12/22 06:17:17;;;;;;;3.83;1.50;;;13.60;95.20;;;;;;5014596;28;20021;-70
2020/12/22 06:19:44;;;;;;;5.47;1.92;;;13.60;95.20;;;;;;5032450;28;20026;-70
2020/12/22 06:22:12;;;;;;;4.97;2.05;;;13.70;95.30;;;;;;5013687;28;20021;-69
2020/12/22 06:24:39;;;;;;;4.50;1.60;;;13.70;95.30;;;;;;5032299;28;20053;-69
2020/12/22 06:27:06;;;;;;;2.60;1.63;;;13.70;95.30;;;;;;5032058;28;20025;-69
2020/12/22 06:29:33;;;;;;;3.58;2.10;;;13.70;95.30;;;;;;5032904;28;20022;-69
2020/12/22 06:32:28;;;;;;;4.22;2.28;;;13.60;95.30;;;;;;5035654;28;20034;-70
2020/12/22 06:35:15;;;;;;;4.18;2.42;;;13.70;95.30;;;;;;5023939;28;20030;-70
2020/12/22 06:37:42;;;;;;;7.35;3.08;;;13.70;95.30;;;;;;5034767;28;20048;-70
2020/12/22 06:40:09;;;;;;;6.32;3.05;;;13.70;95.40;;;;;;5035048;28;20132;-70
2020/12/22 06:42:46;;;;;;;9.10;3.10;;;13.70;95.40;;;;;;5033340;28;20102;-68
2020/12/22 06:45:26;;;;;;;6.18;3.55;;;13.70;95.50;;;;;;5015419;28;20054;-68
2020/12/22 06:47:53;;;;;;;7.43;4.10;;;13.70;95.50;;;;;;5015691;28;20037;-69
2020/12/22 06:50:44;;;;;;;8.27;4.72;;;13.70;95.50;;;;;;4997695;28;20364;-70
2020/12/22 06:53:48;;;;;;;9.98;4.45;;;13.70;95.50;;;;;;5015410;28;20018;-70
2020/12/22 06:56:14;;;;;;;7.38;4.35;;;13.70;95.50;;;;;;4954418;29;20110;-70
2020/12/22 06:58:41;;;;;;;7.13;4.68;;;13.70;95.50;;;;;;4964374;28;20121;-70
2020/12/22 07:01:29;;;;;;;8.10;4.38;;;13.70;95.40;;;;;;4993807;28;20040;-69
2020/12/22 07:04:16;;;;;;;5.75;3.95;;;13.70;95.30;;;;;;5014793;28;20030;-70
2020/12/22 07:06:42;;;;;;;9.00;3.90;;;13.70;95.30;;;;;;5015482;28;20017;-70
2020/12/22 07:09:20;;;;;;;12.05;4.75;;;13.70;95.00;;;;;;5015249;28;20388;-70
2020/12/22 07:11:47;;;;;;;9.63;3.78;;;13.70;95.00;;;;;;5015069;28;20019;-71
2020/12/22 07:14:18;;;;;;;6.10;3.13;;;13.70;94.90;;;;;;5015164;28;20064;-69
2020/12/22 07:16:54;;;;;;;6.90;2.90;;;13.70;94.70;;;;;;4997661;28;20125;-70
2020/12/22 07:19:28;;;;;;;5.95;3.00;;;13.70;94.50;;;;;;5014643;28;20038;-71
2020/12/22 07:21:57;;;;;;;6.25;2.80;;;13.60;94.50;;;;;;5014934;28;20029;-71
2020/12/22 07:24:24;;;;;;;6.05;2.63;;;13.60;94.40;;;;;;5014796;28;20044;-70
2020/12/22 07:26:50;;;;;;;4.28;1.95;;;13.60;94.40;;;;;;5015346;28;20076;-70
2020/12/22 07:29:16;;;;;;;5.28;2.10;;;13.60;94.30;;;;;;5014825;28;20026;-70
2020/12/22 07:31:42;;;;;;;4.63;2.08;;;13.60;94.10;;;;;;4996808;28;20034;-72
2020/12/22 07:34:08;;;;;;;4.75;1.67;;;13.60;94.10;;;;;;5015401;28;20026;-69
2020/12/22 07:36:34;;;;;;;6.90;2.35;;;13.60;94.00;;;;;;5034876;28;20094;-68
2020/12/22 07:39:21;;;;;;;3.67;1.83;;;13.60;94.10;;;;;;5015600;28;20546;-67
2020/12/22 07:41:49;;;;;;;4.68;1.70;;;13.60;94.00;;;;;;5033921;28;20079;-73
2020/12/22 07:44:17;;;;;;;6.25;1.63;;;13.60;93.90;;;;;;5016508;28;20049;-69
2020/12/22 07:46:44;;;;;;;5.70;1.65;;;13.60;93.80;;;;;;5034232;28;20112;-72
2020/12/22 07:49:11;;;;;;;5.05;1.63;;;13.60;93.70;;;;;;5016505;28;20029;-71
2020/12/22 07:51:43;;;;;;;7.47;2.33;;;13.60;93.80;;;;;;5017098;28;20033;-70
2020/12/22 07:54:09;;;;;;;5.45;1.52;;;13.60;93.70;;;;;;5008216;28;20022;-70
2020/12/22 07:56:37;;;;;;;5.00;1.23;;;13.50;93.70;;;;;;5027586;28;20037;-70
2020/12/22 07:59:09;;;;;;;5.13;1.90;;;13.60;93.80;;;;;;5032970;28;20040;-70
2020/12/22 08:01:38;;;;;;;;;;;13.60;93.90;;;;;;5033174;28;20071;-71
2020/12/22 08:04:20;;;;;;;4.13;1.40;;;13.60;93.70;;;;;;5031607;28;19909;-71
2020/12/22 08:07:03;;;;;;;6.22;1.50;;;13.50;93.60;;;;;;5013494;28;20030;-73
2020/12/22 08:09:36;;;;;;;7.90;2.17;;;13.50;93.70;;;;;;5031523;28;20032;-72
2020/12/22 08:12:05;;;;;;;7.50;1.67;;;13.50;94.20;;;;;;5029079;28;20022;-70
2020/12/22 08:14:41;;;;;;;5.03;2.10;;;13.50;94.00;;;;;;5028970;28;20041;-79
2020/12/22 08:17:16;;;;;;;5.03;1.45;;;13.40;94.10;;;;;;5032374;28;20037;-74
2020/12/22 08:19:43;;;;;;;10.27;2.20;;;13.40;94.40;;;;;;5033490;28;20082;-74
2020/12/22 08:22:12;;;;;;;6.53;1.80;;;13.30;94.50;;;;;;5032395;28;20378;-74
2020/12/22 08:24:38;;;;;;;8.48;1.83;;;13.30;94.60;;;;;;5032934;28;20025;-74
2020/12/22 08:27:04;;;;;;;5.93;1.77;;;13.30;94.50;;;;;;5032935;28;20021;-73
2020/12/22 08:29:30;;;;;;;8.13;1.80;;;13.30;94.50;;;;;;5014215;28;20025;-75
2020/12/22 08:32:00;;;;;;;6.90;1.92;;;13.30;94.40;;;;;;5032871;28;20382;-71
2020/12/22 08:34:26;;;;;;;11.60;2.13;;;13.40;94.50;;;;;;5032226;28;20044;-73
2020/12/22 08:36:52;;;;;;;6.90;1.98;;;13.40;94.50;;;;;;5032304;28;20092;-73
2020/12/22 08:39:19;;;;;;;7.72;1.83;;;13.40;94.30;;;;;;5014875;28;20042;-78
2020/12/22 08:41:47;;;;;;;8.07;2.10;;;13.50;94.10;;;;;;5031463;28;20039;-73
2020/12/22 08:44:13;;;;;;;7.55;2.38;;;13.50;94.20;;;;;;5027482;28;20494;-74
2020/12/22 08:46:40;;;;;;;12.68;2.65;;;13.50;94.30;;;;;;5032698;28;20029;-72
2020/12/22 08:49:16;;;;;;;8.77;2.85;;;13.60;94.10;;;;;;5019822;28;20030;-71
2020/12/22 08:51:43;;;;;;;23.50;3.28;;;13.60;93.90;;;;;;5012492;28;20069;-70
2020/12/22 08:54:09;;;;;;;8.70;2.15;;;13.60;94.00;;;;;;4997059;28;20099;-73
2020/12/22 08:56:37;;;;;;;6.13;1.95;;;13.60;94.10;;;;;;5012317;28;20489;-77
2020/12/22 08:59:07;;;;;;;8.35;2.05;;;13.60;94.10;;;;;;5014350;28;20036;-77
2020/12/22 09:01:49;;;;;;;7.25;2.15;;;13.60;94.30;;;;;;5014417;28;20084;-75
2020/12/22 09:04:15;;;;;;;8.10;1.70;;;13.50;94.10;;;;;;5032183;28;20025;-76
2020/12/22 09:06:43;;;;;;;6.68;1.92;;;13.50;94.30;;;;;;5014665;28;20440;-75
2020/12/22 09:09:11;;;;;;;9.02;2.08;;;13.50;94.30;;;;;;5015003;28;20013;-86
2020/12/22 09:11:38;;;;;;;8.10;1.95;;;13.50;94.30;;;;;;5031852;28;20025;-76
2020/12/22 09:14:09;;;;;;;11.98;2.30;;;13.50;94.20;;;;;;5014185;28;20049;-74
2020/12/22 09:16:56;;;;;;;8.95;2.13;;;13.40;94.30;;;;;;5014379;28;20053;-76
2020/12/22 09:19:41;;;;;;;9.18;2.30;;;13.40;94.20;;;;;;5008733;28;20042;-80
2020/12/22 09:22:08;;;;;;;10.05;2.65;;;13.50;94.00;;;;;;5014938;28;20021;-77
2020/12/22 09:24:33;;;;;;;8.85;2.10;;;13.50;93.90;;;;;;5014379;28;20458;-78
2020/12/22 09:27:10;;;;;;;7.22;2.10;;;13.50;93.90;;;;;;5013705;28;20087;-70
2020/12/22 09:29:38;;;;;;;8.43;2.03;;;13.50;93.80;;;;;;5032374;28;20463;-76
2020/12/22 09:32:05;;;;;;;8.82;2.30;;;13.50;93.70;;;;;;5031101;28;20096;-72
2020/12/22 09:34:33;;;;;;;12.05;2.55;;;13.50;93.50;;;;;;5032228;28;20029;-73
2020/12/22 09:37:08;;;;;;;12.95;2.88;;;13.60;94.00;;;;;;5031365;28;20353;-74
2020/12/22 09:39:36;;;;;;;9.93;1.95;;;13.60;93.70;;;;;;5031086;28;20484;-76
2020/12/22 09:42:03;;;;;;;11.90;2.60;;;13.60;93.60;;;;;;5031966;28;20025;-77
2020/12/22 09:44:28;;;;;;;23.42;3.47;;;13.50;93.70;;;;;;5014549;28;20057;-77
2020/12/22 09:46:55;;;;;;;9.23;2.20;;;13.50;93.90;;;;;;5013037;28;20049;-75
2020/12/22 09:49:23;;;;;;;10.68;2.40;;;13.50;94.00;;;;;;5023206;28;20037;-76
2020/12/22 09:51:49;;;;;;;11.15;2.72;;;13.40;94.00;;;;;;5013775;28;20071;-70
2020/12/22 09:54:15;;;;;;;9.10;2.22;;;13.40;94.20;;;;;;5031575;28;20198;-74
2020/12/22 09:56:41;;;;;;;13.27;3.00;;;13.40;94.30;;;;;;5014134;28;20087;-76
2020/12/22 09:59:07;;;;;;;10.65;3.08;;;13.50;94.30;;;;;;5030908;28;20474;-76
2020/12/22 10:01:33;;;;;;;9.45;2.40;;;13.40;94.10;;;;;;5032093;28;20025;-76
2020/12/22 10:03:59;;;;;;;12.52;2.60;;;13.40;94.10;;;;;;5015344;28;20052;-70
2020/12/22 10:06:26;;;;;;;10.75;2.22;;;13.40;94.20;;;;;;5035525;28;20018;-75
2020/12/22 10:08:53;;;;;;;7.68;2.33;;;13.40;94.30;;;;;;5006994;28;20033;-78
2020/12/22 10:11:26;;;;;;;9.18;2.70;;;13.40;94.40;;;;;;5012891;28;20047;-78
2020/12/22 10:13:52;;;;;;;8.95;2.22;;;13.40;94.00;;;;;;5017238;28;20056;-78
2020/12/22 10:16:21;;;;;;;7.95;2.95;;;13.40;94.10;;;;;;5017996;28;20079;-79
2020/12/22 10:18:48;;;;;;;10.65;2.50;;;13.50;94.10;;;;;;5017701;28;20482;-79
2020/12/22 10:21:15;;;;;;;14.25;3.15;;;13.50;94.00;;;;;;5000970;28;20032;-77
2020/12/22 10:23:42;;;;;;;11.77;2.72;;;13.60;93.90;;;;;;5017437;28;20104;-75
2020/12/22 10:26:09;;;;;;;11.27;2.65;;;13.60;93.90;;;;;;5017709;28;20409;-78
2020/12/22 10:28:37;;;;;;;11.82;2.15;;;13.50;94.00;;;;;;5017162;28;20025;-79
2020/12/22 10:31:03;;;;;;;7.85;2.47;;;13.50;94.00;;;;;;5016271;28;20092;-79
2020/12/22 10:33:30;;;;;;;10.65;2.45;;;13.60;94.10;;;;;;5034796;28;20030;-77
2020/12/22 10:35:55;;;;;;;11.35;3.05;;;13.60;94.10;;;;;;5015971;28;20021;-78
2020/12/22 10:38:21;;;;;;;9.35;2.42;;;13.50;94.20;;;;;;5017839;28;20107;-79
2020/12/22 10:40:48;;;;;;;8.38;2.97;;;13.50;94.20;;;;;;4997856;28;20034;-87
2020/12/22 10:43:14;;;;;;;7.18;2.63;;;13.40;94.20;;;;;;5016091;28;20029;-73
2020/12/22 10:45:40;;;;;;;52.97;4.35;;;13.40;94.30;;;;;;5035143;28;20025;-74
2020/12/22 10:48:06;;;;;;;7.97;2.83;;;13.40;94.40;;;;;;5030576;28;20394;-77
2020/12/22 10:50:36;;;;;;;9.13;2.38;;;13.40;94.40;;;;;;5017010;28;20108;-78
2020/12/22 10:53:07;;;;;;;8.05;2.53;;;13.30;94.50;;;;;;5012261;28;20552;-71
2020/12/22 10:55:33;;;;;;;9.63;3.42;;;13.30;94.60;;;;;;5026067;28;20029;-72
2020/12/22 10:57:58;;;;;;;11.30;3.15;;;13.30;94.80;;;;;;5009548;28;20128;-78
2020/12/22 11:00:25;;;;;;;10.57;3.20;;;13.20;94.80;;;;;;5035147;28;20686;-78
2020/12/22 11:02:55;;;;;;;10.90;3.40;;;13.20;94.90;;;;;;5034823;28;20022;-76
2020/12/22 11:08:06;;;;;;;11.55;4.30;;;13.30;94.90;;;;;;5034764;28;20481;-75
2020/12/22 11:10:32;;;;;;;10.50;3.65;;;13.30;94.80;;;;;;5016559;28;20149;-75
2020/12/22 11:12:58;;;;;;;13.30;4.07;;;13.40;94.80;;;;;;5034323;28;20100;-78
2020/12/22 11:15:23;;;;;;;10.65;3.60;;;13.40;94.70;;;;;;5016106;28;20481;-76
2020/12/22 11:17:49;;;;;;;9.30;4.43;;;13.40;94.80;;;;;;5016135;28;20031;-75
2020/12/22 11:20:14;;;;;;;11.98;3.47;;;13.40;94.60;;;;;;5016522;28;20041;-75
2020/12/22 11:22:40;;;;;;;11.65;3.65;;;13.40;94.50;;;;;;5034085;28;20032;-75
2020/12/22 11:25:06;;;;;;;9.23;3.40;;;13.30;94.50;;;;;;5033208;28;20022;-78
2020/12/22 11:27:31;;;;;;;5.70;2.63;;;13.30;94.50;;;;;;5033633;28;20025;-76
2020/12/22 11:29:57;;;;;;;4.78;2.05;;;13.30;94.30;;;;;;5034492;28;20040;-77
2020/12/22 11:32:22;;;;;;;4.40;1.52;;;13.20;94.20;;;;;;5033861;28;20018;-76
2020/12/22 11:34:48;;;;;;;4.70;1.70;;;13.20;94.00;;;;;;5016527;28;20040;-76
2020/12/22 11:37:13;;;;;;;5.15;1.80;;;13.20;94.00;;;;;;5016038;28;20013;-76
2020/12/22 11:39:39;;;;;;;6.63;1.70;;;13.20;94.00;;;;;;5033623;28;20025;-76
2020/12/22 11:42:06;;;;;;;3.97;1.60;;;13.10;94.00;;;;;;5016044;28;20029;-76
2020/12/22 11:44:31;;;;;;;4.35;1.60;;;13.10;94.00;;;;;;5015689;28;20041;-76
2020/12/22 11:46:57;;;;;;;2.97;1.48;;;13.10;93.90;;;;;;5015591;28;20120;-75
2020/12/22 11:49:24;;;;;;;1.65;1.30;;;13.00;94.10;;;;;;5015465;28;20046;-78
2020/12/22 11:51:55;;;;;;;3.22;1.33;;;12.90;94.00;;;;;;4996454;28;20072;-70
2020/12/22 11:54:21;;;;;;;3.47;1.25;;;12.80;93.80;;;;;;5019977;28;20044;-69
2020/12/22 11:56:47;;;;;;;5.90;1.40;;;12.80;93.80;;;;;;5039103;28;20397;-70
2020/12/22 11:59:13;;;;;;;4.00;1.35;;;12.70;93.90;;;;;;5030807;28;20067;-70
2020/12/22 12:01:38;;;;;;;3.03;1.10;;;12.70;93.80;;;;;;5017429;28;20022;-69
2020/12/22 12:04:04;;;;;;;1.95;1.13;;;12.60;93.90;;;;;;5019229;28;20032;-71
2020/12/22 12:06:29;;;;;;;2.78;1.20;;;12.50;93.90;;;;;;5053042;28;20025;-70
2020/12/22 12:08:55;;;;;;;1.60;1.30;;;12.40;93.90;;;;;;5035505;28;20031;-79
2020/12/22 12:11:21;;;;;;;2.80;1.30;;;12.30;93.90;;;;;;5036104;28;20021;-79
2020/12/22 12:13:46;;;;;;;2.78;1.27;;;12.30;94.10;;;;;;5035176;28;20500;-77
2020/12/22 12:16:18;;;;;;;2.63;1.70;;;12.30;94.10;;;;;;5035772;28;20537;-78
2020/12/22 12:18:45;;;;;;;;;;;12.20;94.30;;;;;;5036384;28;20044;-79
2020/12/22 12:21:17;;;;;;;3.75;1.35;;;12.20;94.40;;;;;;5016882;28;19920;-77
2020/12/22 12:23:43;;;;;;;3.17;1.40;;;12.10;94.40;;;;;;5015385;28;20053;-70
2020/12/22 12:26:10;;;;;;;2.03;1.60;;;12.10;94.40;;;;;;5032832;28;20064;-81
2020/12/22 12:28:40;;;;;;;2.35;1.67;;;12.10;94.40;;;;;;4998711;28;20026;-81
2020/12/22 12:31:07;;;;;;;2.13;1.90;;;12.10;94.50;;;;;;5015083;28;20120;-70
2020/12/22 12:33:34;;;;;;;2.08;1.23;;;12.10;94.50;;;;;;5033221;28;20025;-75
2020/12/22 12:36:00;;;;;;;2.75;1.50;;;12.10;94.60;;;;;;5015074;28;20029;-76
2020/12/22 12:38:25;;;;;;;2.67;1.70;;;12.10;94.60;;;;;;5014951;28;20025;-77
2020/12/22 12:40:51;;;;;;;4.88;1.88;;;12.10;94.50;;;;;;5003334;28;20025;-74
2020/12/22 12:43:16;;;;;;;3.25;1.45;;;12.10;94.40;;;;;;5012485;28;20022;-73
2020/12/22 12:45:42;;;;;;;2.65;1.48;;;12.10;94.40;;;;;;5015128;28;20030;-79
2020/12/22 12:48:07;;;;;;;3.78;1.60;;;12.10;94.30;;;;;;5031010;28;20033;-84
2020/12/22 12:50:33;;;;;;;3.45;1.92;;;12.10;94.30;;;;;;5008279;28;20026;-82